CheckWX is a tool to help pilots better visualize weather data.  It is not intended as a substitute for an official pre-flight weather briefing.

12:21:11 UTC

KDUH METAR
Toledo Suburban Airport
Lambertville, Michigan, USA
Current

5 mins ago

KDUH 221216Z AUTO 36004KT 7SM CLR M04/M06 A3041 RMK AO2 T10411056
Observed
Feb-22 @ 12:16 UTC
Wind
  • 360° at 4 KTS
Visibility
7 SM
Flight Rules
VFR
Cloud Levels
  • Clear skies
Temperature
-4°C / 25°F
Dewpoint
-6°C / 21°F
Humidity
86%
Altimeter
30.41" Hg
Pressure
1029.81 hPa
Previous

25 mins ago

KDUH 221156Z AUTO 00000KT 7SM CLR M04/M06 A3042 RMK AO2 T10421058 11006 21043
Observed
Feb-22 @ 11:56 UTC
Visibility
7 SM
Flight Rules
VFR
Cloud Levels
  • Clear skies
Temperature
-4°C / 25°F
Dewpoint
-6°C / 21°F
Humidity
86%
Altimeter
30.42" Hg
Pressure
1030.11 hPa
Previous

46 mins ago

KDUH 221135Z AUTO 00000KT 10SM CLR M03/M06 A3041 RMK AO2 T10311058
Observed
Feb-22 @ 11:35 UTC
Visibility
10 SM
Flight Rules
VFR
Cloud Levels
  • Clear skies
Temperature
-3°C / 27°F
Dewpoint
-6°C / 21°F
Humidity
80%
Altimeter
30.41" Hg
Pressure
1029.81 hPa